createdAt,value
2022-08-03T00:00:25.241Z,6.50
2022-08-03T00:02:52.409Z,5.78
2022-08-03T00:05:19.506Z,6.40
2022-08-03T00:07:46.415Z,6.90
2022-08-03T00:10:15.702Z,6.22
2022-08-03T00:12:42.659Z,5.90
2022-08-03T00:15:11.321Z,6.90
2022-08-03T00:17:53.751Z,6.30
2022-08-03T00:20:23.886Z,6.63
2022-08-03T00:22:51.259Z,6.50
2022-08-03T00:25:18.207Z,6.90
2022-08-03T00:27:45.368Z,7.05
2022-08-03T00:30:12.508Z,6.23
2022-08-03T00:32:44.351Z,7.25
2022-08-03T00:35:35.170Z,6.35
2022-08-03T00:37:59.801Z,6.00
2022-08-03T00:40:26.984Z,6.22
2022-08-03T00:42:59.841Z,5.77
2022-08-03T00:45:34.712Z,6.47
2022-08-03T00:48:03.812Z,5.85
2022-08-03T00:50:35.110Z,7.13
2022-08-03T00:53:03.431Z,6.28
2022-08-03T00:55:30.830Z,6.87
2022-08-03T00:57:58.787Z,7.03
2022-08-03T01:00:28.374Z,6.90
2022-08-03T01:02:55.215Z,6.80
2022-08-03T01:05:22.745Z,7.00
2022-08-03T01:07:58.011Z,7.23
2022-08-03T01:10:39.986Z,7.20
2022-08-03T01:14:02.369Z,7.68
2022-08-03T01:16:36.667Z,7.30
2022-08-03T01:19:22.552Z,6.65
2022-08-03T01:22:02.477Z,7.10
2022-08-03T01:24:45.785Z,7.20
2022-08-03T01:27:21.572Z,6.55
2022-08-03T01:30:01.071Z,6.13
2022-08-03T01:32:59.769Z,6.30
2022-08-03T01:35:38.401Z,6.40
2022-08-03T01:38:15.544Z,6.30
2022-08-03T01:40:44.645Z,6.60
2022-08-03T01:43:58.959Z,6.57
2022-08-03T01:46:05.867Z,5.85
2022-08-03T01:48:34.523Z,5.90
2022-08-03T01:51:01.746Z,5.53
2022-08-03T01:53:31.525Z,6.00
2022-08-03T01:56:00.345Z,5.95
2022-08-03T01:58:29.462Z,5.88
2022-08-03T02:00:57.988Z,5.60
2022-08-03T02:03:25.269Z,5.30
2022-08-03T02:06:11.484Z,5.53
2022-08-03T02:08:43.452Z,6.20
2022-08-03T02:11:11.135Z,5.93
2022-08-03T02:13:39.451Z,5.87
2022-08-03T02:16:08.622Z,5.72
2022-08-03T02:18:35.549Z,5.50
2022-08-03T02:21:11.017Z,5.22
2022-08-03T02:23:38.970Z,5.95
2022-08-03T02:26:09.682Z,6.00
2022-08-03T02:28:40.551Z,6.00
2022-08-03T02:31:13.970Z,5.60
2022-08-03T02:33:49.128Z,5.97
2022-08-03T02:36:19.899Z,5.70
2022-08-03T02:38:51.299Z,5.93
2022-08-03T02:41:23.163Z,6.35
2022-08-03T02:44:06.615Z,6.13
2022-08-03T02:46:38.505Z,6.20
2022-08-03T02:49:42.617Z,5.72
2022-08-03T02:51:55.862Z,5.53
2022-08-03T02:54:25.056Z,5.65
2022-08-03T02:56:54.041Z,7.00
2022-08-03T02:59:21.671Z,6.40
2022-08-03T03:01:49.264Z,5.47
2022-08-03T03:04:17.341Z,5.30
2022-08-03T03:06:49.563Z,6.40
2022-08-03T03:09:17.260Z,6.55
2022-08-03T03:11:44.827Z,6.57
2022-08-03T03:14:12.557Z,6.05
2022-08-03T03:16:42.017Z,5.80
2022-08-03T03:19:11.522Z,6.22
2022-08-03T03:21:39.307Z,5.80
2022-08-03T03:24:08.141Z,6.10
2022-08-03T03:26:37.372Z,5.43
2022-08-03T03:29:08.015Z,5.87
2022-08-03T03:31:35.599Z,6.18
2022-08-03T03:34:03.040Z,5.70
2022-08-03T03:36:30.066Z,6.00
2022-08-03T03:38:57.628Z,5.82
2022-08-03T03:41:24.671Z,5.70
2022-08-03T03:43:51.597Z,5.20
2022-08-03T03:46:18.740Z,5.50
2022-08-03T03:48:45.728Z,5.70
2022-08-03T03:51:13.420Z,5.63
2022-08-03T03:53:40.272Z,5.60
2022-08-03T03:56:07.220Z,5.68
2022-08-03T03:58:34.113Z,5.40
2022-08-03T04:01:01.390Z,5.22
2022-08-03T04:03:28.436Z,5.20
2022-08-03T04:05:55.442Z,5.70
2022-08-03T04:08:22.481Z,5.47
2022-08-03T04:10:59.636Z,5.70
2022-08-03T04:13:38.088Z,5.93
2022-08-03T04:16:06.918Z,5.32
2022-08-03T04:18:37.807Z,5.67
2022-08-03T04:21:08.766Z,5.60
2022-08-03T04:23:40.413Z,5.07
2022-08-03T04:26:11.053Z,4.80
2022-08-03T04:28:41.574Z,5.43
2022-08-03T04:31:08.542Z,5.70
2022-08-03T04:33:38.641Z,5.10
2022-08-03T04:36:09.149Z,5.22
2022-08-03T04:38:56.039Z,5.57
2022-08-03T04:41:25.929Z,5.47
2022-08-03T04:43:56.241Z,5.67
2022-08-03T04:46:26.411Z,4.85
2022-08-03T04:48:53.860Z,5.28
2022-08-03T04:51:21.352Z,4.93
2022-08-03T04:53:48.258Z,5.00
2022-08-03T04:56:15.164Z,5.70
2022-08-03T04:58:42.200Z,5.22
2022-08-03T05:01:09.112Z,5.40
2022-08-03T05:03:36.350Z,5.07
2022-08-03T05:06:09.683Z,5.90
2022-08-03T05:08:46.390Z,4.60
2022-08-03T05:11:16.518Z,5.70
2022-08-03T05:13:44.868Z,4.93
2022-08-03T05:16:12.470Z,4.15
2022-08-03T05:18:39.516Z,4.97
2022-08-03T05:21:06.586Z,5.13
2022-08-03T05:23:33.545Z,5.15
2022-08-03T05:26:00.351Z,4.97
2022-08-03T05:28:27.325Z,4.97
2022-08-03T05:30:54.143Z,5.63
2022-08-03T05:33:20.965Z,5.07
2022-08-03T05:36:02.813Z,5.13
2022-08-03T05:38:34.146Z,4.65
2022-08-03T05:41:22.475Z,6.05
2022-08-03T05:43:55.124Z,5.25
2022-08-03T05:46:23.349Z,5.33
2022-08-03T05:48:50.662Z,5.07
2022-08-03T05:51:17.578Z,5.00
2022-08-03T05:53:45.035Z,5.15
2022-08-03T05:56:14.374Z,5.38
2022-08-03T05:58:46.810Z,5.50
2022-08-03T06:01:14.512Z,4.90
2022-08-03T06:03:41.322Z,4.75
2022-08-03T06:06:08.198Z,5.20
2022-08-03T06:08:35.416Z,5.40
2022-08-03T06:11:02.322Z,5.23
2022-08-03T06:13:29.255Z,4.88
2022-08-03T06:15:56.078Z,5.40
2022-08-03T06:18:22.876Z,5.75
2022-08-03T06:20:50.295Z,5.35
2022-08-03T06:23:19.599Z,4.67
2022-08-03T06:25:47.463Z,4.80
2022-08-03T06:31:02.718Z,4.80
2022-08-03T06:34:30.229Z,5.30
2022-08-03T06:36:16.848Z,5.23
2022-08-03T06:38:43.926Z,5.30
2022-08-03T06:41:10.747Z,5.70
2022-08-03T06:43:37.966Z,5.28
2022-08-03T06:46:05.678Z,5.35
2022-08-03T06:48:32.881Z,4.53
2022-08-03T06:50:59.780Z,4.75
2022-08-03T06:53:27.444Z,5.45
2022-08-03T06:55:55.204Z,5.50
2022-08-03T06:58:22.783Z,5.40
2022-08-03T07:00:49.861Z,5.47
2022-08-03T07:03:17.337Z,6.28
2022-08-03T07:05:44.631Z,6.05
2022-08-03T07:08:11.728Z,5.03
2022-08-03T07:10:38.716Z,4.72
2022-08-03T07:13:07.133Z,5.50
2022-08-03T07:15:54.988Z,5.53
2022-08-03T07:18:29.167Z,5.65
2022-08-03T07:20:58.285Z,5.60
2022-08-03T07:23:25.230Z,5.50
2022-08-03T07:25:52.330Z,5.67
2022-08-03T07:28:19.704Z,6.18
2022-08-03T07:30:46.627Z,5.82
2022-08-03T07:33:13.569Z,4.97
2022-08-03T07:35:40.477Z,5.68
2022-08-03T07:38:07.467Z,5.57
2022-08-03T07:40:34.591Z,5.30
2022-08-03T07:43:01.473Z,5.82
2022-08-03T07:45:28.323Z,5.10
2022-08-03T07:47:55.202Z,5.15
2022-08-03T07:50:23.089Z,5.13
2022-08-03T07:52:50.836Z,5.50
2022-08-03T07:55:23.877Z,5.63
2022-08-03T07:58:07.482Z,5.55
2022-08-03T08:00:34.564Z,5.13
2022-08-03T08:03:01.796Z,4.77
2022-08-03T08:05:28.912Z,5.70
2022-08-03T08:07:56.172Z,6.20
2022-08-03T08:10:23.684Z,6.10
2022-08-03T08:12:50.996Z,5.60
2022-08-03T08:15:17.948Z,5.27
2022-08-03T08:17:56.558Z,6.88
2022-08-03T08:20:33.077Z,6.07
2022-08-03T08:23:10.246Z,5.90
2022-08-03T08:25:52.827Z,5.57
2022-08-03T08:28:31.173Z,6.00
2022-08-03T08:31:00.524Z,5.85
2022-08-03T08:33:37.388Z,5.00
2022-08-03T08:36:15.542Z,5.40
2022-08-03T08:38:43.286Z,4.95
2022-08-03T08:41:11.633Z,5.50
2022-08-03T08:43:38.884Z,5.22
2022-08-03T08:46:06.308Z,5.50
2022-08-03T08:48:33.292Z,5.35
2022-08-03T08:51:02.039Z,5.00
2022-08-03T08:53:29.916Z,5.13
2022-08-03T08:56:00.973Z,5.50
2022-08-03T08:58:37.741Z,5.07
2022-08-03T09:01:05.744Z,5.68
2022-08-03T09:03:35.787Z,5.18
2022-08-03T09:06:03.661Z,5.37
2022-08-03T09:08:32.004Z,5.25
2022-08-03T09:10:59.491Z,5.13
2022-08-03T09:13:26.623Z,5.35
2022-08-03T09:16:13.426Z,4.80
2022-08-03T09:18:45.702Z,5.32
2022-08-03T09:21:32.035Z,5.40
2022-08-03T09:24:03.824Z,5.23
2022-08-03T09:26:33.031Z,5.13
2022-08-03T09:29:13.504Z,5.45
2022-08-03T09:31:46.307Z,5.03
2022-08-03T09:34:15.377Z,5.35
2022-08-03T09:36:43.248Z,5.30
2022-08-03T09:39:15.765Z,5.50
2022-08-03T09:41:44.900Z,6.07
2022-08-03T09:44:24.366Z,5.50
2022-08-03T09:46:56.723Z,4.70
2022-08-03T09:49:24.628Z,5.03
2022-08-03T09:52:33.019Z,4.82
2022-08-03T09:54:39.786Z,5.20
2022-08-03T09:57:06.835Z,4.85
2022-08-03T09:59:34.666Z,4.47
2022-08-03T10:02:01.971Z,4.47
2022-08-03T10:04:29.323Z,4.82
2022-08-03T10:07:10.682Z,5.13
2022-08-03T10:09:38.288Z,5.07
2022-08-03T10:12:13.044Z,4.70
2022-08-03T10:14:41.562Z,4.80
2022-08-03T10:17:09.984Z,5.00
2022-08-03T10:19:37.049Z,6.20
2022-08-03T10:22:17.517Z,5.55
2022-08-03T10:24:59.402Z,5.88
2022-08-03T10:27:32.024Z,4.90
2022-08-03T10:30:02.451Z,5.25
2022-08-03T10:32:52.626Z,5.20
2022-08-03T10:35:22.205Z,5.10
2022-08-03T10:38:07.167Z,5.40
2022-08-03T10:40:54.540Z,5.47
2022-08-03T10:43:28.602Z,5.22
2022-08-03T10:45:56.954Z,5.28
2022-08-03T10:48:25.025Z,5.38
2022-08-03T10:50:52.733Z,5.50
2022-08-03T10:53:38.253Z,5.40
2022-08-03T10:56:06.579Z,5.25
2022-08-03T10:58:38.037Z,5.22
2022-08-03T11:01:59.215Z,5.20
2022-08-03T11:04:29.820Z,5.30
2022-08-03T11:07:23.119Z,5.67
2022-08-03T11:09:55.453Z,5.22
2022-08-03T11:12:30.438Z,5.00
2022-08-03T11:15:05.230Z,4.90
2022-08-03T11:17:45.843Z,5.57
2022-08-03T11:20:47.476Z,5.00
2022-08-03T11:23:15.624Z,5.20
2022-08-03T11:26:14.937Z,4.95
2022-08-03T11:28:44.805Z,4.97
2022-08-03T11:31:51.458Z,5.28
2022-08-03T11:34:18.734Z,5.50
2022-08-03T11:37:27.237Z,5.15
2022-08-03T11:39:55.766Z,5.22
2022-08-03T11:42:22.613Z,5.60
2022-08-03T11:44:57.586Z,5.50
2022-08-03T11:47:26.474Z,5.77
2022-08-03T11:49:56.504Z,5.00
2022-08-03T11:52:26.922Z,4.95
2022-08-03T11:54:56.524Z,5.43
2022-08-03T11:59:10.876Z,5.13
2022-08-03T12:00:31.379Z,5.40
2022-08-03T12:03:00.630Z,5.60
2022-08-03T12:05:51.361Z,5.47
2022-08-03T12:08:34.174Z,5.50
2022-08-03T12:11:03.072Z,5.63
2022-08-03T12:14:27.419Z,5.70
2022-08-03T12:16:30.519Z,5.47
2022-08-03T12:18:59.972Z,5.18
2022-08-03T12:21:27.506Z,5.10
2022-08-03T12:24:04.006Z,5.38
2022-08-03T12:26:57.219Z,5.70
2022-08-03T12:29:27.174Z,5.20
2022-08-03T12:31:56.054Z,5.22
2022-08-03T12:34:23.267Z,5.50
2022-08-03T12:36:55.067Z,5.22
2022-08-03T12:39:26.206Z,5.33
2022-08-03T12:41:54.400Z,5.10
2022-08-03T12:44:30.992Z,5.10
2022-08-03T12:46:58.810Z,5.78
2022-08-03T12:49:26.761Z,5.07
2022-08-03T12:51:54.038Z,5.53
2022-08-03T12:54:24.807Z,5.53
2022-08-03T12:57:06.923Z,5.60
2022-08-03T12:59:40.688Z,5.53
2022-08-03T13:02:25.341Z,5.10
2022-08-03T13:04:55.939Z,5.37
2022-08-03T13:07:24.003Z,5.10
2022-08-03T13:09:55.812Z,5.22
2022-08-03T13:12:25.536Z,5.38
2022-08-03T13:14:55.677Z,5.20
2022-08-03T13:17:23.052Z,5.00
2022-08-03T13:19:50.524Z,5.20
2022-08-03T13:22:25.315Z,5.10
2022-08-03T13:24:54.803Z,4.68
2022-08-03T13:28:04.864Z,4.85
2022-08-03T13:30:09.499Z,5.40
2022-08-03T13:32:37.109Z,4.80
2022-08-03T13:35:04.442Z,4.85
2022-08-03T13:37:32.289Z,5.13
2022-08-03T13:40:02.617Z,5.22
2022-08-03T13:42:32.676Z,5.77
2022-08-03T13:45:00.812Z,5.10
2022-08-03T13:47:28.549Z,5.13
2022-08-03T13:50:01.899Z,5.00
2022-08-03T13:52:34.342Z,4.88
2022-08-03T13:55:03.807Z,5.10
2022-08-03T13:58:11.636Z,5.10
2022-08-03T14:00:28.015Z,5.03
2022-08-03T14:03:16.167Z,5.15
2022-08-03T14:05:44.117Z,5.47
2022-08-03T14:08:12.119Z,5.83
2022-08-03T14:10:41.912Z,5.68
2022-08-03T14:13:08.954Z,5.82
2022-08-03T14:15:37.424Z,6.32
2022-08-03T14:18:05.075Z,5.80
2022-08-03T14:20:46.883Z,5.80
2022-08-03T14:23:17.792Z,5.93
2022-08-03T14:25:51.811Z,5.95
2022-08-03T14:28:24.163Z,5.82
2022-08-03T14:30:55.706Z,5.80
2022-08-03T14:33:23.059Z,6.23
2022-08-03T14:35:50.996Z,6.03
2022-08-03T14:38:19.218Z,6.35
2022-08-03T14:40:46.543Z,6.20
2022-08-03T14:43:14.083Z,6.03
2022-08-03T14:45:41.795Z,6.10
2022-08-03T14:50:12.573Z,5.75
2022-08-03T14:50:55.767Z,5.80
2022-08-03T14:53:23.304Z,5.30
2022-08-03T14:55:51.943Z,6.20
2022-08-03T14:58:23.869Z,6.20
2022-08-03T15:00:52.816Z,5.97
2022-08-03T15:03:22.475Z,5.93
2022-08-03T15:05:50.383Z,6.55
2022-08-03T15:08:17.294Z,5.60
2022-08-03T15:10:45.345Z,6.13
2022-08-03T15:13:16.095Z,6.00
2022-08-03T15:15:44.824Z,6.95
2022-08-03T15:18:12.256Z,6.90
2022-08-03T15:20:44.834Z,6.45
2022-08-03T15:23:16.282Z,6.50
2022-08-03T15:26:28.551Z,6.60
2022-08-03T15:28:32.250Z,6.70
2022-08-03T15:30:59.259Z,6.47
2022-08-03T15:33:26.148Z,6.18
2022-08-03T15:35:53.120Z,6.70
2022-08-03T15:38:20.261Z,6.85
2022-08-03T15:40:47.273Z,5.90
2022-08-03T15:43:14.043Z,6.03
2022-08-03T15:45:42.005Z,5.70
2022-08-03T15:48:09.265Z,5.87
2022-08-03T15:50:36.326Z,5.63
2022-08-03T15:53:03.595Z,6.10
2022-08-03T15:55:30.964Z,6.07
2022-08-03T15:59:09.395Z,6.20
2022-08-03T16:00:45.054Z,5.90
2022-08-03T16:03:12.097Z,6.28
2022-08-03T16:05:38.933Z,6.57
2022-08-03T16:08:09.149Z,5.60
2022-08-03T16:10:40.350Z,6.00
2022-08-03T16:13:07.743Z,6.40
2022-08-03T16:15:37.463Z,6.88
2022-08-03T16:18:09.029Z,6.38
2022-08-03T16:20:36.157Z,5.70
2022-08-03T16:23:10.643Z,6.60
2022-08-03T16:25:42.797Z,5.97
2022-08-03T16:28:14.388Z,6.00
2022-08-03T16:30:44.405Z,6.25
2022-08-03T16:33:16.917Z,6.20
2022-08-03T16:35:46.028Z,5.85
2022-08-03T16:38:16.762Z,5.67
2022-08-03T16:40:57.206Z,6.50
2022-08-03T16:43:24.586Z,5.60
2022-08-03T16:45:52.056Z,5.72
2022-08-03T16:48:19.492Z,6.05
2022-08-03T16:50:46.742Z,6.10
2022-08-03T16:53:16.898Z,5.63
2022-08-03T16:56:00.023Z,6.10
2022-08-03T16:58:41.469Z,6.15
2022-08-03T17:01:21.913Z,6.03
2022-08-03T17:04:01.918Z,5.70
2022-08-03T17:06:35.852Z,5.65
2022-08-03T17:09:14.492Z,5.78
2022-08-03T17:11:46.915Z,5.72
2022-08-03T17:14:16.394Z,6.43
2022-08-03T17:16:52.968Z,5.90
2022-08-03T17:19:23.240Z,7.80
2022-08-03T17:22:01.100Z,6.65
2022-08-03T17:24:35.692Z,6.45
2022-08-03T17:28:41.671Z,6.10
2022-08-03T17:30:07.831Z,6.70
2022-08-03T17:32:42.570Z,6.30
2022-08-03T17:35:11.023Z,5.95
2022-08-03T17:37:57.557Z,5.40
2022-08-03T17:40:25.454Z,5.18
2022-08-03T17:42:53.352Z,5.20
2022-08-03T17:45:20.507Z,5.13
2022-08-03T17:47:57.397Z,5.60
2022-08-03T17:50:35.375Z,5.15
2022-08-03T17:56:42.452Z,5.57
2022-08-03T18:03:06.565Z,5.25
2022-08-03T18:06:11.467Z,4.68
2022-08-03T18:08:28.915Z,4.65
2022-08-03T18:11:09.737Z,5.10
2022-08-03T18:13:57.889Z,4.53
2022-08-03T18:16:32.276Z,4.72
2022-08-03T18:19:09.607Z,5.38
2022-08-03T18:22:03.548Z,5.40
2022-08-03T18:24:30.274Z,5.17
2022-08-03T18:26:57.491Z,4.72
2022-08-03T18:29:26.077Z,4.40
2022-08-03T18:32:02.470Z,4.95
2022-08-03T18:34:34.241Z,4.60
2022-08-03T18:37:04.409Z,4.70
2022-08-03T18:39:39.149Z,4.53
2022-08-03T18:42:19.423Z,4.50
2022-08-03T18:44:53.838Z,4.80
2022-08-03T18:47:22.983Z,4.82
2022-08-03T18:50:34.740Z,4.40
2022-08-03T18:56:21.656Z,4.70
2022-08-03T18:59:04.381Z,5.28
2022-08-03T19:02:00.269Z,5.10
2022-08-03T19:04:34.615Z,4.80
2022-08-03T19:07:07.945Z,5.22
2022-08-03T19:09:41.006Z,4.90
2022-08-03T19:12:26.585Z,4.57
2022-08-03T19:15:03.963Z,4.82
2022-08-03T19:17:36.296Z,4.87
2022-08-03T19:20:06.852Z,5.20
2022-08-03T19:22:34.095Z,5.70
2022-08-03T19:25:01.826Z,5.47
2022-08-03T19:27:30.360Z,4.90
2022-08-03T19:30:03.921Z,5.30
2022-08-03T19:32:33.322Z,5.13
2022-08-03T19:35:02.486Z,4.80
2022-08-03T19:37:38.083Z,4.72
2022-08-03T19:40:19.781Z,4.70
2022-08-03T19:42:52.222Z,5.50
2022-08-03T19:45:52.654Z,4.95
2022-08-03T19:48:14.381Z,5.05
2022-08-03T19:50:44.511Z,5.18
2022-08-03T19:53:13.561Z,5.30
2022-08-03T19:55:48.822Z,5.10
2022-08-03T19:58:17.827Z,4.80
2022-08-03T20:00:56.172Z,4.80
2022-08-03T20:03:26.457Z,5.13
2022-08-03T20:05:54.139Z,5.05
2022-08-03T20:08:22.413Z,4.70
2022-08-03T20:10:49.893Z,4.65
2022-08-03T20:13:19.577Z,4.90
2022-08-03T20:15:46.848Z,5.03
2022-08-03T20:21:15.259Z,4.73
2022-08-03T20:24:03.212Z,4.50
2022-08-03T20:26:32.976Z,4.65
2022-08-03T20:29:09.014Z,4.50
2022-08-03T20:31:37.698Z,5.13
2022-08-03T20:34:06.498Z,5.00
2022-08-03T20:36:33.454Z,4.47
2022-08-03T20:39:00.444Z,4.60
2022-08-03T20:41:27.653Z,4.22
2022-08-03T20:43:56.717Z,4.55
2022-08-03T20:46:31.074Z,4.63
2022-08-03T20:49:04.941Z,4.50
2022-08-03T20:51:49.927Z,4.40
2022-08-03T20:54:30.941Z,4.75
2022-08-03T20:57:03.589Z,4.55
2022-08-03T20:59:46.751Z,4.60
2022-08-03T21:02:29.782Z,4.70
2022-08-03T21:05:03.823Z,4.63
2022-08-03T21:08:06.532Z,4.82
2022-08-03T21:10:38.221Z,4.50
2022-08-03T21:12:56.082Z,5.30
2022-08-03T21:13:00.957Z,4.63
2022-08-03T21:13:03.877Z,4.70
2022-08-03T21:13:04.378Z,5.70
2022-08-03T21:13:18.843Z,4.77
2022-08-03T21:16:06.433Z,5.03
2022-08-03T21:18:45.109Z,4.90
2022-08-03T21:21:15.065Z,4.95
2022-08-03T21:23:48.250Z,4.45
2022-08-03T21:26:18.312Z,5.37
2022-08-03T21:28:49.405Z,4.95
2022-08-03T21:31:24.421Z,5.30
2022-08-03T21:33:58.525Z,4.80
2022-08-03T21:36:32.527Z,5.38
2022-08-03T21:39:00.460Z,4.60
2022-08-03T21:41:30.156Z,4.90
2022-08-03T21:43:57.515Z,4.80
2022-08-03T21:46:26.492Z,4.65
2022-08-03T21:49:51.958Z,4.85
2022-08-03T21:51:50.345Z,5.10
2022-08-03T21:54:20.248Z,4.80
2022-08-03T21:56:48.592Z,5.03
2022-08-03T21:59:20.332Z,5.13
2022-08-03T22:01:51.316Z,5.43
2022-08-03T22:04:37.185Z,5.13
2022-08-03T22:07:09.829Z,5.00
2022-08-03T22:09:37.010Z,4.85
2022-08-03T22:12:04.651Z,4.90
2022-08-03T22:14:34.533Z,4.95
2022-08-03T22:17:03.428Z,4.80
2022-08-03T22:19:33.690Z,5.43
2022-08-03T22:22:01.789Z,4.80
2022-08-03T22:24:31.965Z,5.07
2022-08-03T22:27:01.457Z,4.80
2022-08-03T22:29:29.541Z,5.27
2022-08-03T22:31:58.351Z,5.13
2022-08-03T22:34:28.202Z,5.28
2022-08-03T22:36:58.530Z,4.95
2022-08-03T22:39:28.488Z,5.18
2022-08-03T22:41:57.505Z,5.27
2022-08-03T22:44:25.030Z,4.75
2022-08-03T22:46:52.402Z,5.20
2022-08-03T22:49:20.359Z,5.00
2022-08-03T22:51:47.680Z,5.10
2022-08-03T22:54:15.239Z,5.00
2022-08-03T22:56:42.984Z,5.10
2022-08-03T22:59:40.858Z,4.65
2022-08-03T23:02:19.997Z,5.18
2022-08-03T23:04:51.310Z,5.38
2022-08-03T23:07:27.782Z,5.43
2022-08-03T23:09:56.532Z,5.05
2022-08-03T23:12:24.180Z,5.25
2022-08-03T23:15:02.024Z,5.40
2022-08-03T23:17:31.774Z,5.05
2022-08-03T23:20:04.945Z,4.90
2022-08-03T23:22:35.468Z,4.93
2022-08-03T23:25:04.500Z,5.15
2022-08-03T23:27:32.994Z,4.50
2022-08-03T23:30:01.445Z,5.20
2022-08-03T23:32:30.749Z,5.60
2022-08-03T23:35:00.907Z,5.00
2022-08-03T23:37:27.953Z,5.30
2022-08-03T23:39:57.373Z,5.30
2022-08-03T23:42:24.434Z,5.53
2022-08-03T23:44:54.654Z,5.50
2022-08-03T23:47:21.789Z,5.70
2022-08-03T23:49:49.156Z,5.13
2022-08-03T23:52:25.933Z,5.50
2022-08-03T23:55:09.774Z,5.45
2022-08-03T23:57:51.376Z,5.30
